sensor_id;sensor_type;location;lat;lon;timestamp;temperature;humidity
51839;DHT22;37886;53.174;6.368;2023-03-21T00:00:20;9.10;99.90
51839;DHT22;37886;53.174;6.368;2023-03-21T00:02:46;9.10;99.90
51839;DHT22;37886;53.174;6.368;2023-03-21T00:05:12;9.00;99.90
51839;DHT22;37886;53.174;6.368;2023-03-21T00:07:37;9.10;99.90
51839;DHT22;37886;53.174;6.368;2023-03-21T00:10:03;9.10;99.90
51839;DHT22;37886;53.174;6.368;2023-03-21T00:12:29;9.10;99.90
51839;DHT22;37886;53.174;6.368;2023-03-21T00:14:57;9.10;99.90
51839;DHT22;37886;53.174;6.368;2023-03-21T00:17:30;9.10;99.90
51839;DHT22;37886;53.174;6.368;2023-03-21T00:19:57;9.10;99.90
51839;DHT22;37886;53.174;6.368;2023-03-21T00:22:24;9.10;99.90
51839;DHT22;37886;53.174;6.368;2023-03-21T00:24:50;9.10;99.90
51839;DHT22;37886;53.174;6.368;2023-03-21T00:27:17;9.10;99.90
51839;DHT22;37886;53.174;6.368;2023-03-21T00:29:45;9.10;99.90
51839;DHT22;37886;53.174;6.368;2023-03-21T00:32:11;9.10;99.90
51839;DHT22;37886;53.174;6.368;2023-03-21T00:34:36;9.10;99.90
51839;DHT22;37886;53.174;6.368;2023-03-21T00:37:05;9.10;99.90
51839;DHT22;37886;53.174;6.368;2023-03-21T00:39:32;9.10;99.90
51839;DHT22;37886;53.174;6.368;2023-03-21T00:41:58;9.10;99.90
51839;DHT22;37886;53.174;6.368;2023-03-21T00:44:23;9.10;99.90
51839;DHT22;37886;53.174;6.368;2023-03-21T00:46:50;9.10;99.90
51839;DHT22;37886;53.174;6.368;2023-03-21T00:49:16;9.20;99.90
51839;DHT22;37886;53.174;6.368;2023-03-21T00:51:42;9.10;99.90
51839;DHT22;37886;53.174;6.368;2023-03-21T00:54:10;9.10;99.90
51839;DHT22;37886;53.174;6.368;2023-03-21T00:56:36;9.10;99.90
51839;DHT22;37886;53.174;6.368;2023-03-21T00:59:02;9.10;99.90
51839;DHT22;37886;53.174;6.368;2023-03-21T01:01:28;9.10;99.90
51839;DHT22;37886;53.174;6.368;2023-03-21T01:03:57;9.10;99.90
51839;DHT22;37886;53.174;6.368;2023-03-21T01:06:31;9.20;99.90
51839;DHT22;37886;53.174;6.368;2023-03-21T01:08:57;9.20;99.90
51839;DHT22;37886;53.174;6.368;2023-03-21T01:11:25;9.20;99.90
51839;DHT22;37886;53.174;6.368;2023-03-21T01:13:52;9.10;99.90
51839;DHT22;37886;53.174;6.368;2023-03-21T01:16:17;9.10;99.90
51839;DHT22;37886;53.174;6.368;2023-03-21T01:18:43;9.20;99.90
51839;DHT22;37886;53.174;6.368;2023-03-21T01:21:13;9.10;99.90
51839;DHT22;37886;53.174;6.368;2023-03-21T01:23:41;9.10;99.90
51839;DHT22;37886;53.174;6.368;2023-03-21T01:26:08;9.20;99.90
51839;DHT22;37886;53.174;6.368;2023-03-21T01:28:34;9.20;99.90
51839;DHT22;37886;53.174;6.368;2023-03-21T01:31:01;9.10;99.90
51839;DHT22;37886;53.174;6.368;2023-03-21T01:33:28;9.10;99.90
51839;DHT22;37886;53.174;6.368;2023-03-21T01:35:54;9.10;99.90
51839;DHT22;37886;53.174;6.368;2023-03-21T01:38:20;9.10;99.90
51839;DHT22;37886;53.174;6.368;2023-03-21T01:40:47;9.10;99.90
51839;DHT22;37886;53.174;6.368;2023-03-21T01:43:26;9.20;99.90
51839;DHT22;37886;53.174;6.368;2023-03-21T01:52:12;9.20;99.90
51839;DHT22;37886;53.174;6.368;2023-03-21T01:54:39;9.20;99.90
51839;DHT22;37886;53.174;6.368;2023-03-21T01:57:10;9.20;99.90
51839;DHT22;37886;53.174;6.368;2023-03-21T01:59:42;9.20;99.90
51839;DHT22;37886;53.174;6.368;2023-03-21T02:02:12;9.20;99.90
51839;DHT22;37886;53.174;6.368;2023-03-21T02:04:42;9.20;99.90
51839;DHT22;37886;53.174;6.368;2023-03-21T02:07:30;9.20;99.90
51839;DHT22;37886;53.174;6.368;2023-03-21T02:10:00;9.30;99.90
51839;DHT22;37886;53.174;6.368;2023-03-21T02:12:26;9.20;99.90
51839;DHT22;37886;53.174;6.368;2023-03-21T02:14:53;9.20;99.90
51839;DHT22;37886;53.174;6.368;2023-03-21T02:17:37;9.20;99.90
51839;DHT22;37886;53.174;6.368;2023-03-21T02:39:49;9.30;99.90
51839;DHT22;37886;53.174;6.368;2023-03-21T02:42:52;9.30;99.90
51839;DHT22;37886;53.174;6.368;2023-03-21T02:45:23;9.30;99.90
51839;DHT22;37886;53.174;6.368;2023-03-21T02:47:58;9.30;99.90
51839;DHT22;37886;53.174;6.368;2023-03-21T02:53:30;9.30;99.90
51839;DHT22;37886;53.174;6.368;2023-03-21T02:55:58;9.30;99.90
51839;DHT22;37886;53.174;6.368;2023-03-21T02:58:24;9.30;99.90
51839;DHT22;37886;53.174;6.368;2023-03-21T03:00:52;9.30;99.90
51839;DHT22;37886;53.174;6.368;2023-03-21T03:03:21;9.30;99.90
51839;DHT22;37886;53.174;6.368;2023-03-21T03:05:50;9.30;99.90
51839;DHT22;37886;53.174;6.368;2023-03-21T03:11:20;9.30;99.90
51839;DHT22;37886;53.174;6.368;2023-03-21T03:16:22;9.30;99.90
51839;DHT22;37886;53.174;6.368;2023-03-21T03:18:52;9.30;99.90
51839;DHT22;37886;53.174;6.368;2023-03-21T03:24:13;9.30;99.90
51839;DHT22;37886;53.174;6.368;2023-03-21T03:27:03;9.30;99.90
51839;DHT22;37886;53.174;6.368;2023-03-21T03:29:32;9.30;99.90
51839;DHT22;37886;53.174;6.368;2023-03-21T03:32:30;9.30;99.90
51839;DHT22;37886;53.174;6.368;2023-03-21T03:34:58;9.30;99.90
51839;DHT22;37886;53.174;6.368;2023-03-21T03:37:28;9.30;99.90
51839;DHT22;37886;53.174;6.368;2023-03-21T03:39:59;9.40;99.90
51839;DHT22;37886;53.174;6.368;2023-03-21T03:42:30;9.30;99.90
51839;DHT22;37886;53.174;6.368;2023-03-21T03:44:57;9.40;99.90
51839;DHT22;37886;53.174;6.368;2023-03-21T03:50:40;9.30;99.90
51839;DHT22;37886;53.174;6.368;2023-03-21T03:53:27;9.30;99.90
51839;DHT22;37886;53.174;6.368;2023-03-21T03:55:55;9.30;99.90
51839;DHT22;37886;53.174;6.368;2023-03-21T03:58:22;9.30;99.90
51839;DHT22;37886;53.174;6.368;2023-03-21T04:00:49;9.30;99.90
51839;DHT22;37886;53.174;6.368;2023-03-21T04:03:15;9.30;99.90
51839;DHT22;37886;53.174;6.368;2023-03-21T04:05:41;9.40;99.90
51839;DHT22;37886;53.174;6.368;2023-03-21T04:08:11;9.40;99.90
51839;DHT22;37886;53.174;6.368;2023-03-21T04:10:37;9.30;99.90
51839;DHT22;37886;53.174;6.368;2023-03-21T04:13:03;9.30;99.90
51839;DHT22;37886;53.174;6.368;2023-03-21T04:15:29;9.30;99.90
51839;DHT22;37886;53.174;6.368;2023-03-21T04:17:55;9.30;99.90
51839;DHT22;37886;53.174;6.368;2023-03-21T04:20:20;9.30;99.90
51839;DHT22;37886;53.174;6.368;2023-03-21T04:22:46;9.30;99.90
51839;DHT22;37886;53.174;6.368;2023-03-21T04:25:13;9.40;99.90
51839;DHT22;37886;53.174;6.368;2023-03-21T04:27:38;9.30;99.90
51839;DHT22;37886;53.174;6.368;2023-03-21T04:30:05;9.30;99.90
51839;DHT22;37886;53.174;6.368;2023-03-21T04:32:32;9.40;99.90
51839;DHT22;37886;53.174;6.368;2023-03-21T04:34:59;9.30;99.90
51839;DHT22;37886;53.174;6.368;2023-03-21T04:37:25;9.40;99.90
51839;DHT22;37886;53.174;6.368;2023-03-21T04:39:52;9.40;99.90
51839;DHT22;37886;53.174;6.368;2023-03-21T04:42:18;9.30;99.90
51839;DHT22;37886;53.174;6.368;2023-03-21T04:44:48;9.40;99.90
51839;DHT22;37886;53.174;6.368;2023-03-21T04:47:14;9.40;99.90
51839;DHT22;37886;53.174;6.368;2023-03-21T04:49:44;9.40;99.90
51839;DHT22;37886;53.174;6.368;2023-03-21T04:52:10;9.40;99.90
51839;DHT22;37886;53.174;6.368;2023-03-21T04:54:35;9.30;99.90
51839;DHT22;37886;53.174;6.368;2023-03-21T04:57:02;9.40;99.90
51839;DHT22;37886;53.174;6.368;2023-03-21T04:59:29;9.30;99.90
51839;DHT22;37886;53.174;6.368;2023-03-21T05:01:55;9.30;99.90
51839;DHT22;37886;53.174;6.368;2023-03-21T05:04:23;9.30;99.90
51839;DHT22;37886;53.174;6.368;2023-03-21T05:06:49;9.40;99.90
51839;DHT22;37886;53.174;6.368;2023-03-21T05:09:14;9.40;99.90
51839;DHT22;37886;53.174;6.368;2023-03-21T05:11:41;9.40;99.90
51839;DHT22;37886;53.174;6.368;2023-03-21T05:14:10;9.40;99.90
51839;DHT22;37886;53.174;6.368;2023-03-21T05:16:38;9.40;99.90
51839;DHT22;37886;53.174;6.368;2023-03-21T05:19:13;9.40;99.90
51839;DHT22;37886;53.174;6.368;2023-03-21T05:21:39;9.30;99.90
51839;DHT22;37886;53.174;6.368;2023-03-21T05:24:18;9.40;99.90
51839;DHT22;37886;53.174;6.368;2023-03-21T05:26:44;9.30;99.90
51839;DHT22;37886;53.174;6.368;2023-03-21T05:29:17;9.40;99.90
51839;DHT22;37886;53.174;6.368;2023-03-21T05:31:44;9.40;99.90
51839;DHT22;37886;53.174;6.368;2023-03-21T05:34:13;9.40;99.90
51839;DHT22;37886;53.174;6.368;2023-03-21T05:36:39;9.40;99.90
51839;DHT22;37886;53.174;6.368;2023-03-21T05:39:05;9.40;99.90
51839;DHT22;37886;53.174;6.368;2023-03-21T05:41:31;9.40;99.90
51839;DHT22;37886;53.174;6.368;2023-03-21T05:43:56;9.40;99.90
51839;DHT22;37886;53.174;6.368;2023-03-21T05:46:22;9.40;99.90
51839;DHT22;37886;53.174;6.368;2023-03-21T05:48:48;9.40;99.90
51839;DHT22;37886;53.174;6.368;2023-03-21T05:51:14;9.40;99.90
51839;DHT22;37886;53.174;6.368;2023-03-21T05:53:40;9.40;99.90
51839;DHT22;37886;53.174;6.368;2023-03-21T05:56:06;9.40;99.90
51839;DHT22;37886;53.174;6.368;2023-03-21T05:58:31;9.40;99.90
51839;DHT22;37886;53.174;6.368;2023-03-21T06:00:57;9.40;99.90
51839;DHT22;37886;53.174;6.368;2023-03-21T06:03:23;9.40;99.90
51839;DHT22;37886;53.174;6.368;2023-03-21T06:05:48;9.40;99.90
51839;DHT22;37886;53.174;6.368;2023-03-21T06:08:14;9.40;99.90
51839;DHT22;37886;53.174;6.368;2023-03-21T06:10:40;9.40;99.90
51839;DHT22;37886;53.174;6.368;2023-03-21T06:13:06;9.50;99.90
51839;DHT22;37886;53.174;6.368;2023-03-21T06:15:31;9.40;99.90
51839;DHT22;37886;53.174;6.368;2023-03-21T06:17:57;9.50;99.90
51839;DHT22;37886;53.174;6.368;2023-03-21T06:20:23;9.40;99.90
51839;DHT22;37886;53.174;6.368;2023-03-21T06:22:49;9.40;99.90
51839;DHT22;37886;53.174;6.368;2023-03-21T06:25:14;9.50;99.90
51839;DHT22;37886;53.174;6.368;2023-03-21T06:27:41;9.50;99.90
51839;DHT22;37886;53.174;6.368;2023-03-21T06:30:07;9.50;99.90
51839;DHT22;37886;53.174;6.368;2023-03-21T06:32:33;9.50;99.90
51839;DHT22;37886;53.174;6.368;2023-03-21T06:34:58;9.50;99.90
51839;DHT22;37886;53.174;6.368;2023-03-21T06:37:24;9.50;99.90
51839;DHT22;37886;53.174;6.368;2023-03-21T06:39:53;9.50;99.90
51839;DHT22;37886;53.174;6.368;2023-03-21T06:42:18;9.50;99.90
51839;DHT22;37886;53.174;6.368;2023-03-21T06:44:44;9.50;99.90
51839;DHT22;37886;53.174;6.368;2023-03-21T06:47:10;9.60;99.90
51839;DHT22;37886;53.174;6.368;2023-03-21T06:49:36;9.60;99.90
51839;DHT22;37886;53.174;6.368;2023-03-21T06:52:02;9.60;99.90
51839;DHT22;37886;53.174;6.368;2023-03-21T06:54:27;9.60;99.90
51839;DHT22;37886;53.174;6.368;2023-03-21T06:56:53;9.60;99.90
51839;DHT22;37886;53.174;6.368;2023-03-21T06:59:20;9.60;99.90
51839;DHT22;37886;53.174;6.368;2023-03-21T07:01:46;9.70;99.90
51839;DHT22;37886;53.174;6.368;2023-03-21T07:04:11;9.70;99.90
51839;DHT22;37886;53.174;6.368;2023-03-21T07:06:37;9.70;99.90
51839;DHT22;37886;53.174;6.368;2023-03-21T07:09:04;9.70;99.90
51839;DHT22;37886;53.174;6.368;2023-03-21T07:11:30;9.70;99.90
51839;DHT22;37886;53.174;6.368;2023-03-21T07:13:56;9.70;99.90
51839;DHT22;37886;53.174;6.368;2023-03-21T07:16:23;9.70;99.90
51839;DHT22;37886;53.174;6.368;2023-03-21T07:18:49;9.70;99.90
51839;DHT22;37886;53.174;6.368;2023-03-21T07:21:16;9.70;99.90
51839;DHT22;37886;53.174;6.368;2023-03-21T07:23:42;9.70;99.90
51839;DHT22;37886;53.174;6.368;2023-03-21T07:26:07;9.70;99.90
51839;DHT22;37886;53.174;6.368;2023-03-21T07:28:33;9.70;99.90
51839;DHT22;37886;53.174;6.368;2023-03-21T07:31:01;9.70;99.90
51839;DHT22;37886;53.174;6.368;2023-03-21T07:33:28;9.70;99.90
51839;DHT22;37886;53.174;6.368;2023-03-21T07:35:55;9.80;99.90
51839;DHT22;37886;53.174;6.368;2023-03-21T07:38:22;9.80;99.90
51839;DHT22;37886;53.174;6.368;2023-03-21T07:40:48;9.70;99.90
51839;DHT22;37886;53.174;6.368;2023-03-21T07:43:15;9.70;99.90
51839;DHT22;37886;53.174;6.368;2023-03-21T07:45:41;9.70;99.90
51839;DHT22;37886;53.174;6.368;2023-03-21T07:48:08;9.70;99.90
51839;DHT22;37886;53.174;6.368;2023-03-21T07:50:35;9.80;99.90
51839;DHT22;37886;53.174;6.368;2023-03-21T07:53:01;9.70;99.90
51839;DHT22;37886;53.174;6.368;2023-03-21T07:55:27;9.80;99.90
51839;DHT22;37886;53.174;6.368;2023-03-21T07:57:53;9.80;99.90
51839;DHT22;37886;53.174;6.368;2023-03-21T08:00:19;9.80;99.90
51839;DHT22;37886;53.174;6.368;2023-03-21T08:02:51;9.90;99.90
51839;DHT22;37886;53.174;6.368;2023-03-21T08:05:29;9.90;99.90
51839;DHT22;37886;53.174;6.368;2023-03-21T08:07:55;9.90;99.90
51839;DHT22;37886;53.174;6.368;2023-03-21T08:10:21;9.90;99.90
51839;DHT22;37886;53.174;6.368;2023-03-21T08:12:47;9.90;99.90
51839;DHT22;37886;53.174;6.368;2023-03-21T08:15:14;9.90;99.90
51839;DHT22;37886;53.174;6.368;2023-03-21T08:17:40;9.90;99.90
51839;DHT22;37886;53.174;6.368;2023-03-21T08:20:08;9.80;99.90
51839;DHT22;37886;53.174;6.368;2023-03-21T08:22:36;9.90;99.90
51839;DHT22;37886;53.174;6.368;2023-03-21T08:25:03;9.90;99.90
51839;DHT22;37886;53.174;6.368;2023-03-21T08:27:31;9.90;99.90
51839;DHT22;37886;53.174;6.368;2023-03-21T08:29:58;9.90;99.90
51839;DHT22;37886;53.174;6.368;2023-03-21T08:32:23;9.90;99.90
51839;DHT22;37886;53.174;6.368;2023-03-21T08:35:02;9.90;99.90
51839;DHT22;37886;53.174;6.368;2023-03-21T08:37:28;9.90;99.90
51839;DHT22;37886;53.174;6.368;2023-03-21T08:39:54;9.90;99.90
51839;DHT22;37886;53.174;6.368;2023-03-21T08:42:21;9.80;99.90
51839;DHT22;37886;53.174;6.368;2023-03-21T08:44:48;9.90;99.90
51839;DHT22;37886;53.174;6.368;2023-03-21T08:47:13;9.90;99.90
51839;DHT22;37886;53.174;6.368;2023-03-21T08:49:40;9.90;99.90
51839;DHT22;37886;53.174;6.368;2023-03-21T08:52:06;9.90;99.90
51839;DHT22;37886;53.174;6.368;2023-03-21T08:54:33;9.90;99.90
51839;DHT22;37886;53.174;6.368;2023-03-21T08:56:59;9.90;99.90
51839;DHT22;37886;53.174;6.368;2023-03-21T08:59:25;10.00;99.90
51839;DHT22;37886;53.174;6.368;2023-03-21T09:01:51;10.00;99.90
51839;DHT22;37886;53.174;6.368;2023-03-21T09:04:16;9.90;99.90
51839;DHT22;37886;53.174;6.368;2023-03-21T09:06:43;10.00;99.90
51839;DHT22;37886;53.174;6.368;2023-03-21T09:09:11;10.00;99.90
51839;DHT22;37886;53.174;6.368;2023-03-21T09:11:37;10.00;99.90
51839;DHT22;37886;53.174;6.368;2023-03-21T09:14:02;9.90;99.90
51839;DHT22;37886;53.174;6.368;2023-03-21T09:16:28;10.00;99.90
51839;DHT22;37886;53.174;6.368;2023-03-21T09:18:54;9.90;99.90
51839;DHT22;37886;53.174;6.368;2023-03-21T09:21:21;9.90;99.90
51839;DHT22;37886;53.174;6.368;2023-03-21T09:23:49;10.00;99.90
51839;DHT22;37886;53.174;6.368;2023-03-21T09:26:17;10.00;99.90
51839;DHT22;37886;53.174;6.368;2023-03-21T09:28:44;10.00;99.90
51839;DHT22;37886;53.174;6.368;2023-03-21T09:31:11;10.00;99.90
51839;DHT22;37886;53.174;6.368;2023-03-21T09:33:38;10.00;99.90
51839;DHT22;37886;53.174;6.368;2023-03-21T09:36:08;10.00;99.90
51839;DHT22;37886;53.174;6.368;2023-03-21T09:38:46;10.00;99.90
51839;DHT22;37886;53.174;6.368;2023-03-21T09:49:57;9.90;99.90
51839;DHT22;37886;53.174;6.368;2023-03-21T09:52:58;9.90;99.90
51839;DHT22;37886;53.174;6.368;2023-03-21T09:55:36;10.00;99.90
51839;DHT22;37886;53.174;6.368;2023-03-21T09:58:37;10.00;99.90
51839;DHT22;37886;53.174;6.368;2023-03-21T10:01:20;10.00;99.90
51839;DHT22;37886;53.174;6.368;2023-03-21T10:03:55;10.00;99.90
51839;DHT22;37886;53.174;6.368;2023-03-21T10:06:25;10.00;99.90
51839;DHT22;37886;53.174;6.368;2023-03-21T10:09:27;9.90;99.90
51839;DHT22;37886;53.174;6.368;2023-03-21T10:12:03;9.90;99.90
51839;DHT22;37886;53.174;6.368;2023-03-21T10:14:43;9.90;99.90
51839;DHT22;37886;53.174;6.368;2023-03-21T10:19:42;9.90;99.90
51839;DHT22;37886;53.174;6.368;2023-03-21T10:22:11;9.90;99.90
51839;DHT22;37886;53.174;6.368;2023-03-21T10:24:37;10.00;99.90
51839;DHT22;37886;53.174;6.368;2023-03-21T10:27:03;10.00;99.90
51839;DHT22;37886;53.174;6.368;2023-03-21T10:29:43;10.00;99.90
51839;DHT22;37886;53.174;6.368;2023-03-21T10:32:12;10.10;99.90
51839;DHT22;37886;53.174;6.368;2023-03-21T10:34:57;10.20;99.90
51839;DHT22;37886;53.174;6.368;2023-03-21T10:37:23;10.30;99.90
51839;DHT22;37886;53.174;6.368;2023-03-21T10:39:52;10.30;99.90
51839;DHT22;37886;53.174;6.368;2023-03-21T10:42:25;10.30;99.90
51839;DHT22;37886;53.174;6.368;2023-03-21T10:44:53;10.30;99.90
51839;DHT22;37886;53.174;6.368;2023-03-21T10:47:25;10.30;99.90
51839;DHT22;37886;53.174;6.368;2023-03-21T10:49:52;10.40;99.90
51839;DHT22;37886;53.174;6.368;2023-03-21T10:52:20;10.40;99.90
51839;DHT22;37886;53.174;6.368;2023-03-21T10:54:47;10.60;99.90
51839;DHT22;37886;53.174;6.368;2023-03-21T10:57:21;10.60;99.90
51839;DHT22;37886;53.174;6.368;2023-03-21T10:59:56;10.70;99.90
51839;DHT22;37886;53.174;6.368;2023-03-21T11:02:25;10.80;99.90
51839;DHT22;37886;53.174;6.368;2023-03-21T11:04:54;10.80;99.90
51839;DHT22;37886;53.174;6.368;2023-03-21T11:07:20;10.90;99.90
51839;DHT22;37886;53.174;6.368;2023-03-21T11:09:54;11.00;99.90
51839;DHT22;37886;53.174;6.368;2023-03-21T11:12:35;11.00;99.90
51839;DHT22;37886;53.174;6.368;2023-03-21T11:15:31;11.00;99.90
51839;DHT22;37886;53.174;6.368;2023-03-21T11:17:59;11.10;99.90
51839;DHT22;37886;53.174;6.368;2023-03-21T11:20:28;11.20;99.90
51839;DHT22;37886;53.174;6.368;2023-03-21T11:22:55;11.30;99.90
51839;DHT22;37886;53.174;6.368;2023-03-21T11:25:37;11.30;99.90
51839;DHT22;37886;53.174;6.368;2023-03-21T11:28:18;11.20;99.90
51839;DHT22;37886;53.174;6.368;2023-03-21T11:30:55;11.20;99.90
51839;DHT22;37886;53.174;6.368;2023-03-21T11:33:25;11.30;99.90
51839;DHT22;37886;53.174;6.368;2023-03-21T11:36:22;11.40;99.90
51839;DHT22;37886;53.174;6.368;2023-03-21T11:38:54;11.30;99.90
51839;DHT22;37886;53.174;6.368;2023-03-21T11:41:22;11.50;99.90
51839;DHT22;37886;53.174;6.368;2023-03-21T11:43:52;11.50;99.90
51839;DHT22;37886;53.174;6.368;2023-03-21T11:46:23;11.60;99.90
51839;DHT22;37886;53.174;6.368;2023-03-21T11:48:50;11.60;99.90
51839;DHT22;37886;53.174;6.368;2023-03-21T11:51:30;11.70;99.90
51839;DHT22;37886;53.174;6.368;2023-03-21T11:56:31;11.60;99.90
51839;DHT22;37886;53.174;6.368;2023-03-21T12:05:09;11.50;99.90
51839;DHT22;37886;53.174;6.368;2023-03-21T12:07:50;11.50;99.90
51839;DHT22;37886;53.174;6.368;2023-03-21T12:10:42;11.60;99.90
51839;DHT22;37886;53.174;6.368;2023-03-21T12:16:22;11.50;99.90
51839;DHT22;37886;53.174;6.368;2023-03-21T12:25:08;11.40;99.90
51839;DHT22;37886;53.174;6.368;2023-03-21T12:39:39;11.40;99.90
51839;DHT22;37886;53.174;6.368;2023-03-21T12:45:10;11.70;99.90
51839;DHT22;37886;53.174;6.368;2023-03-21T12:47:38;11.80;99.90
51839;DHT22;37886;53.174;6.368;2023-03-21T12:50:14;11.90;99.90
51839;DHT22;37886;53.174;6.368;2023-03-21T12:52:46;11.90;99.90
51839;DHT22;37886;53.174;6.368;2023-03-21T12:55:33;12.00;99.90
51839;DHT22;37886;53.174;6.368;2023-03-21T12:58:16;12.00;99.90
51839;DHT22;37886;53.174;6.368;2023-03-21T13:00:56;11.90;99.90
51839;DHT22;37886;53.174;6.368;2023-03-21T13:06:03;11.90;99.90
51839;DHT22;37886;53.174;6.368;2023-03-21T13:08:36;12.00;99.90
51839;DHT22;37886;53.174;6.368;2023-03-21T13:11:04;12.10;99.90
51839;DHT22;37886;53.174;6.368;2023-03-21T13:13:35;12.30;99.90
51839;DHT22;37886;53.174;6.368;2023-03-21T13:18:58;12.40;99.90
51839;DHT22;37886;53.174;6.368;2023-03-21T13:24:24;12.50;99.90
51839;DHT22;37886;53.174;6.368;2023-03-21T13:32:35;12.70;99.90
51839;DHT22;37886;53.174;6.368;2023-03-21T13:35:03;12.70;99.90
51839;DHT22;37886;53.174;6.368;2023-03-21T13:38:00;12.70;99.90
51839;DHT22;37886;53.174;6.368;2023-03-21T13:40:27;12.70;99.90
51839;DHT22;37886;53.174;6.368;2023-03-21T13:42:59;12.50;99.90
51839;DHT22;37886;53.174;6.368;2023-03-21T13:45:45;12.30;99.90
51839;DHT22;37886;53.174;6.368;2023-03-21T13:48:27;12.20;99.90
51839;DHT22;37886;53.174;6.368;2023-03-21T13:51:04;12.20;99.90
51839;DHT22;37886;53.174;6.368;2023-03-21T13:58:40;12.30;99.90
51839;DHT22;37886;53.174;6.368;2023-03-21T14:01:28;12.40;99.90
51839;DHT22;37886;53.174;6.368;2023-03-21T14:06:38;12.50;99.90
51839;DHT22;37886;53.174;6.368;2023-03-21T14:09:06;12.60;99.90
51839;DHT22;37886;53.174;6.368;2023-03-21T14:11:33;13.10;99.90
51839;DHT22;37886;53.174;6.368;2023-03-21T14:14:00;13.50;99.90
51839;DHT22;37886;53.174;6.368;2023-03-21T14:16:27;13.80;99.90
51839;DHT22;37886;53.174;6.368;2023-03-21T14:19:00;13.70;99.90
51839;DHT22;37886;53.174;6.368;2023-03-21T14:21:29;13.40;99.90
51839;DHT22;37886;53.174;6.368;2023-03-21T14:24:10;13.20;99.90
51839;DHT22;37886;53.174;6.368;2023-03-21T14:26:44;13.20;99.90
51839;DHT22;37886;53.174;6.368;2023-03-21T14:29:21;13.00;99.90
51839;DHT22;37886;53.174;6.368;2023-03-21T14:31:48;13.00;99.90
51839;DHT22;37886;53.174;6.368;2023-03-21T14:34:14;13.10;99.90
51839;DHT22;37886;53.174;6.368;2023-03-21T14:36:42;13.70;99.90
51839;DHT22;37886;53.174;6.368;2023-03-21T14:39:22;13.30;99.90
51839;DHT22;37886;53.174;6.368;2023-03-21T14:42:00;13.10;99.90
51839;DHT22;37886;53.174;6.368;2023-03-21T14:44:38;13.00;99.90
51839;DHT22;37886;53.174;6.368;2023-03-21T14:47:16;13.10;99.90
51839;DHT22;37886;53.174;6.368;2023-03-21T14:49:42;13.10;99.90
51839;DHT22;37886;53.174;6.368;2023-03-21T14:52:15;13.30;99.90
51839;DHT22;37886;53.174;6.368;2023-03-21T14:54:44;13.20;99.90
51839;DHT22;37886;53.174;6.368;2023-03-21T14:57:13;13.10;99.90
51839;DHT22;37886;53.174;6.368;2023-03-21T14:59:40;13.00;99.90
51839;DHT22;37886;53.174;6.368;2023-03-21T15:02:19;12.80;99.90
51839;DHT22;37886;53.174;6.368;2023-03-21T15:04:56;12.80;99.90
51839;DHT22;37886;53.174;6.368;2023-03-21T15:07:31;12.70;99.90
51839;DHT22;37886;53.174;6.368;2023-03-21T15:10:02;12.60;99.90
51839;DHT22;37886;53.174;6.368;2023-03-21T15:12:30;12.60;99.90
51839;DHT22;37886;53.174;6.368;2023-03-21T15:14:56;12.60;99.90
51839;DHT22;37886;53.174;6.368;2023-03-21T15:17:23;12.60;99.90
51839;DHT22;37886;53.174;6.368;2023-03-21T15:19:49;12.60;99.90
51839;DHT22;37886;53.174;6.368;2023-03-21T15:22:44;12.50;99.90
51839;DHT22;37886;53.174;6.368;2023-03-21T15:25:15;12.50;99.90
51839;DHT22;37886;53.174;6.368;2023-03-21T15:27:42;12.50;99.90
51839;DHT22;37886;53.174;6.368;2023-03-21T15:30:24;12.50;99.90
51839;DHT22;37886;53.174;6.368;2023-03-21T15:32:50;12.50;99.90
51839;DHT22;37886;53.174;6.368;2023-03-21T15:35:24;12.50;99.90
51839;DHT22;37886;53.174;6.368;2023-03-21T15:37:54;12.50;99.90
51839;DHT22;37886;53.174;6.368;2023-03-21T15:42:47;12.50;99.90
51839;DHT22;37886;53.174;6.368;2023-03-21T15:45:31;12.40;99.90
51839;DHT22;37886;53.174;6.368;2023-03-21T15:48:11;12.40;99.90
51839;DHT22;37886;53.174;6.368;2023-03-21T15:50:39;12.30;99.90
51839;DHT22;37886;53.174;6.368;2023-03-21T15:53:17;12.30;99.90
51839;DHT22;37886;53.174;6.368;2023-03-21T15:55:46;12.30;99.90
51839;DHT22;37886;53.174;6.368;2023-03-21T15:58:20;12.30;99.90
51839;DHT22;37886;53.174;6.368;2023-03-21T16:00:54;12.30;99.90
51839;DHT22;37886;53.174;6.368;2023-03-21T16:03:26;12.30;99.90
51839;DHT22;37886;53.174;6.368;2023-03-21T16:13:47;12.20;99.90
51839;DHT22;37886;53.174;6.368;2023-03-21T16:16:21;12.20;99.90
51839;DHT22;37886;53.174;6.368;2023-03-21T16:18:48;12.20;99.90
51839;DHT22;37886;53.174;6.368;2023-03-21T16:21:17;12.10;99.90
51839;DHT22;37886;53.174;6.368;2023-03-21T16:23:44;12.10;99.90
51839;DHT22;37886;53.174;6.368;2023-03-21T16:26:16;12.00;99.90
51839;DHT22;37886;53.174;6.368;2023-03-21T16:28:44;11.80;99.90
51839;DHT22;37886;53.174;6.368;2023-03-21T16:31:16;11.60;99.90
51839;DHT22;37886;53.174;6.368;2023-03-21T16:33:42;11.50;99.90
51839;DHT22;37886;53.174;6.368;2023-03-21T16:36:20;11.50;99.90
51839;DHT22;37886;53.174;6.368;2023-03-21T16:38:48;11.30;99.90
51839;DHT22;37886;53.174;6.368;2023-03-21T16:41:15;11.20;99.90
51839;DHT22;37886;53.174;6.368;2023-03-21T16:43:42;11.10;99.90
51839;DHT22;37886;53.174;6.368;2023-03-21T16:46:15;11.10;99.90
51839;DHT22;37886;53.174;6.368;2023-03-21T16:48:45;11.00;99.90
51839;DHT22;37886;53.174;6.368;2023-03-21T16:51:13;11.00;99.90
51839;DHT22;37886;53.174;6.368;2023-03-21T16:53:39;11.00;99.90
51839;DHT22;37886;53.174;6.368;2023-03-21T16:56:05;11.00;99.90
51839;DHT22;37886;53.174;6.368;2023-03-21T16:58:30;11.00;99.90
51839;DHT22;37886;53.174;6.368;2023-03-21T17:00:56;10.90;99.90
51839;DHT22;37886;53.174;6.368;2023-03-21T17:03:22;10.90;99.90
51839;DHT22;37886;53.174;6.368;2023-03-21T17:05:48;10.90;99.90
51839;DHT22;37886;53.174;6.368;2023-03-21T17:08:17;10.90;99.90
51839;DHT22;37886;53.174;6.368;2023-03-21T17:10:43;10.90;99.90
51839;DHT22;37886;53.174;6.368;2023-03-21T17:13:09;10.80;99.90
51839;DHT22;37886;53.174;6.368;2023-03-21T17:15:35;10.80;99.90
51839;DHT22;37886;53.174;6.368;2023-03-21T17:18:01;10.80;99.90
51839;DHT22;37886;53.174;6.368;2023-03-21T17:20:30;10.80;99.90
51839;DHT22;37886;53.174;6.368;2023-03-21T17:22:56;10.80;99.90
51839;DHT22;37886;53.174;6.368;2023-03-21T17:25:22;10.90;99.90
51839;DHT22;37886;53.174;6.368;2023-03-21T17:27:48;10.90;99.90
51839;DHT22;37886;53.174;6.368;2023-03-21T17:30:31;10.90;99.90
51839;DHT22;37886;53.174;6.368;2023-03-21T17:32:57;10.90;99.90
51839;DHT22;37886;53.174;6.368;2023-03-21T17:35:23;10.90;99.90
51839;DHT22;37886;53.174;6.368;2023-03-21T17:37:50;10.80;99.90
51839;DHT22;37886;53.174;6.368;2023-03-21T17:40:25;10.70;99.90
51839;DHT22;37886;53.174;6.368;2023-03-21T17:42:51;10.70;99.90
51839;DHT22;37886;53.174;6.368;2023-03-21T17:45:18;10.70;99.90
51839;DHT22;37886;53.174;6.368;2023-03-21T17:47:44;10.70;99.90
51839;DHT22;37886;53.174;6.368;2023-03-21T17:50:31;10.60;99.90
51839;DHT22;37886;53.174;6.368;2023-03-21T17:53:02;10.60;99.90